Time;durP1;ratioP1;P1;durP2;ratioP2;P2;SDS_P1;SDS_P2;PMS_P1;PMS_P2;Temp;Humidity;BMP_temperature;BMP_pressure;BME280_temperature;BME280_humidity;BME280_pressure;Samples;Min_cycle;Max_cycle;Signal;HPM_P1;HPM_P2
2022/08/15 00:01:30;;;;;;;1.30;1.20;;;29.70;99.90;;;;;;4984716;28;20232;-94
2022/08/15 00:04:23;;;;;;;1.20;1.00;;;29.70;99.90;;;;;;4992445;28;20215;-95
2022/08/15 00:07:09;;;;;;;1.25;1.15;;;29.60;99.90;;;;;;4991608;28;20211;-95
2022/08/15 00:09:49;;;;;;;1.80;1.20;;;29.70;99.90;;;;;;4992913;28;20226;-94
2022/08/15 00:12:31;;;;;;;1.75;1.27;;;29.60;99.90;;;;;;4976756;28;20214;-95
2022/08/15 00:15:08;;;;;;;2.15;1.10;;;29.60;99.90;;;;;;4992899;28;20203;-95
2022/08/15 00:17:51;;;;;;;1.08;1.00;;;29.60;99.90;;;;;;5037779;23;20245;-95
2022/08/15 00:20:27;;;;;;;1.40;1.10;;;29.40;99.90;;;;;;5013953;28;20305;-95
2022/08/15 00:23:02;;;;;;;1.40;1.30;;;29.20;99.90;;;;;;5006369;28;20655;-95
2022/08/15 00:25:42;;;;;;;2.07;1.50;;;29.20;99.90;;;;;;5001714;28;20218;-95
2022/08/15 00:28:14;;;;;;;2.05;0.90;;;29.20;99.90;;;;;;5008174;28;20266;-94
2022/08/15 00:30:59;;;;;;;3.03;1.20;;;29.20;99.90;;;;;;5014269;28;20273;-96
2022/08/15 00:33:32;;;;;;;1.53;1.30;;;28.90;99.90;;;;;;5009161;28;20309;-95
2022/08/15 00:36:20;;;;;;;2.10;1.33;;;29.00;99.90;;;;;;4988279;28;20290;-96
2022/08/15 00:39:13;;;;;;;1.13;0.93;;;29.00;99.90;;;;;;5269290;23;20812;-96
2022/08/15 00:46:58;;;;;;;1.50;1.23;;;28.50;99.90;;;;;;5038012;28;20569;-96
2022/08/15 00:49:34;;;;;;;1.83;1.20;;;28.50;99.90;;;;;;5047925;28;20212;-94
2022/08/15 00:52:37;;;;;;;1.70;1.23;;;28.50;99.90;;;;;;5042935;28;20251;-94
2022/08/15 00:55:16;;;;;;;1.30;1.17;;;28.40;99.90;;;;;;5047927;28;20228;-94
2022/08/15 00:57:51;;;;;;;1.98;0.93;;;28.20;99.90;;;;;;5025086;28;20232;-94
2022/08/15 01:00:39;;;;;;;2.50;1.20;;;28.20;99.90;;;;;;5042710;28;20316;-95
2022/08/15 01:03:22;;;;;;;1.80;1.10;;;28.10;99.90;;;;;;5047174;28;20223;-94
2022/08/15 01:06:01;;;;;;;2.80;1.07;;;28.30;99.90;;;;;;5233599;23;20238;-95
2022/08/15 01:08:37;;;;;;;2.53;1.10;;;28.30;99.90;;;;;;4979357;28;20206;-96
2022/08/15 01:11:22;;;;;;;1.77;1.40;;;28.30;99.90;;;;;;4978780;28;20202;-96
2022/08/15 01:14:06;;;;;;;4.07;1.00;;;28.70;99.90;;;;;;4979091;28;20221;-96
2022/08/15 01:16:58;;;;;;;1.97;0.90;;;29.10;99.90;;;;;;4978595;28;20238;-95
2022/08/15 01:19:33;;;;;;;1.00;0.90;;;29.00;99.90;;;;;;4978979;28;20210;-96
2022/08/15 01:25:00;;;;;;;2.33;1.10;;;28.90;99.90;;;;;;5026540;23;20242;-94
2022/08/15 01:28:10;;;;;;;1.10;1.00;;;29.10;99.90;;;;;;4991232;28;20294;-95
2022/08/15 01:30:51;;;;;;;1.43;1.00;;;29.10;99.90;;;;;;4988727;28;20634;-95
2022/08/15 01:33:38;;;;;;;1.80;1.00;;;29.20;99.90;;;;;;4986658;28;20207;-94
2022/08/15 01:36:14;;;;;;;1.27;1.03;;;29.30;99.90;;;;;;4992597;28;20211;-94
2022/08/15 01:39:11;;;;;;;1.50;1.20;;;29.70;99.90;;;;;;4990870;28;20322;-95
2022/08/15 01:48:47;;;;;;;1.30;1.20;;;29.60;99.90;;;;;;4971362;29;20661;-95
2022/08/15 01:51:30;;;;;;;4.40;1.30;;;29.10;99.90;;;;;;4973031;28;20290;-96
2022/08/15 01:57:23;;;;;;;1.07;1.03;;;28.30;99.90;;;;;;4973320;28;20199;-96
2022/08/15 02:00:02;;;;;;;2.57;1.47;;;28.00;99.90;;;;;;4970580;28;20216;-94
2022/08/15 02:05:47;;;;;;;4.13;1.20;;;27.10;99.90;;;;;;4968682;29;20684;-96
2022/08/15 02:08:28;;;;;;;3.80;1.60;;;26.50;99.90;;;;;;4963570;28;20238;-95
2022/08/15 02:11:16;;;;;;;2.03;1.30;;;26.00;99.90;;;;;;4972367;28;20222;-95
2022/08/15 02:13:54;;;;;;;1.90;1.33;;;25.70;99.90;;;;;;4986589;28;20274;-94
2022/08/15 02:16:43;;;;;;;2.30;1.20;;;25.20;99.90;;;;;;4994744;28;20222;-94
2022/08/15 02:19:20;;;;;;;3.77;2.00;;;24.90;99.90;;;;;;5001547;28;20250;-92
2022/08/15 02:24:46;;;;;;;2.07;1.20;;;24.30;99.90;;;;;;5060127;23;20346;-95
2022/08/15 02:27:21;;;;;;;2.27;1.40;;;24.20;99.90;;;;;;5054201;28;20220;-94
2022/08/15 02:29:55;;;;;;;3.13;1.67;;;24.20;99.90;;;;;;5045554;28;20205;-95
2022/08/15 02:32:29;;;;;;;2.27;1.10;;;24.20;99.90;;;;;;5206927;23;20320;-94
2022/08/15 02:35:02;;;;;;;1.53;1.17;;;24.10;99.90;;;;;;4995000;28;20215;-95
2022/08/15 02:37:35;;;;;;;1.17;1.00;;;24.00;99.90;;;;;;4976089;28;20689;-95
2022/08/15 02:43:17;;;;;;;1.13;0.90;;;23.80;99.90;;;;;;4994248;28;20210;-96
2022/08/15 02:45:52;;;;;;;1.90;1.20;;;23.80;99.90;;;;;;4994503;28;20229;-95
2022/08/15 02:48:46;;;;;;;1.80;1.30;;;23.70;99.90;;;;;;4983630;28;20688;-95
2022/08/15 02:51:27;;;;;;;3.73;1.60;;;23.60;99.90;;;;;;4983939;28;20218;-96
2022/08/15 02:57:23;;;;;;;2.10;1.47;;;23.30;99.90;;;;;;4984955;28;20233;-96
2022/08/15 02:59:55;;;;;;;2.30;1.13;;;23.10;99.90;;;;;;4986522;28;20217;-95
2022/08/15 03:02:31;;;;;;;5.60;1.50;;;22.90;99.90;;;;;;4981991;28;20281;-95
2022/08/15 03:05:06;;;;;;;2.27;1.37;;;22.80;99.90;;;;;;4980643;28;20720;-95
2022/08/15 03:07:38;;;;;;;1.87;1.43;;;22.70;99.90;;;;;;4981005;28;20313;-95
2022/08/15 03:10:14;;;;;;;2.90;1.93;;;22.60;99.90;;;;;;4984593;28;20207;-96
2022/08/15 03:13:06;;;;;;;2.30;1.47;;;22.50;99.90;;;;;;4981565;28;20547;-96
2022/08/15 03:15:44;;;;;;;2.67;1.67;;;22.30;99.90;;;;;;4981422;28;20658;-96
2022/08/15 03:18:29;;;;;;;2.03;1.40;;;22.20;99.90;;;;;;4993465;28;20234;-96
2022/08/15 03:21:10;;;;;;;2.27;1.40;;;22.10;99.90;;;;;;4991701;28;20206;-94
2022/08/15 03:23:48;;;;;;;1.57;1.43;;;22.10;99.90;;;;;;4991228;28;20219;-96
2022/08/15 03:26:26;;;;;;;1.53;1.43;;;22.00;99.90;;;;;;4990133;28;20203;-95
2022/08/15 03:29:45;;;;;;;1.73;1.63;;;22.00;99.90;;;;;;4989339;28;20226;-95
2022/08/15 03:32:25;;;;;;;1.37;1.27;;;21.90;99.90;;;;;;4983880;28;20637;-96
2022/08/15 03:35:11;;;;;;;1.97;1.50;;;21.80;99.90;;;;;;4988471;28;20211;-95
2022/08/15 03:37:44;;;;;;;2.03;1.20;;;21.70;99.90;;;;;;4986082;28;20207;-95
2022/08/15 03:40:38;;;;;;;1.47;1.27;;;21.70;99.90;;;;;;4985782;28;20238;-94
2022/08/15 03:43:17;;;;;;;1.70;1.60;;;21.50;99.90;;;;;;4967983;28;20282;-96
2022/08/15 03:45:57;;;;;;;1.93;1.53;;;21.40;99.90;;;;;;4963215;28;20211;-96
2022/08/15 03:48:44;;;;;;;5.67;1.40;;;21.30;99.90;;;;;;4962938;28;20268;-96
2022/08/15 03:51:26;;;;;;;3.03;1.60;;;21.20;99.90;;;;;;4961401;28;20222;-96
2022/08/15 03:54:03;;;;;;;2.13;1.20;;;21.10;99.90;;;;;;4962569;28;20222;-96
2022/08/15 03:56:54;;;;;;;1.70;1.30;;;21.10;99.90;;;;;;4967040;28;20286;-96
2022/08/15 03:59:26;;;;;;;1.70;1.30;;;21.00;99.90;;;;;;4969548;28;20243;-96
2022/08/15 04:08:16;;;;;;;8.23;1.50;;;20.90;99.90;;;;;;4971846;29;20288;-96
2022/08/15 04:11:10;;;;;;;1.90;1.40;;;20.80;99.90;;;;;;4972657;28;20235;-95
2022/08/15 04:13:47;;;;;;;1.30;1.17;;;20.70;99.90;;;;;;4975204;28;20207;-94
2022/08/15 04:16:21;;;;;;;1.30;1.20;;;20.70;99.90;;;;;;4958769;28;20231;-94
2022/08/15 04:19:15;;;;;;;1.20;1.10;;;20.70;99.90;;;;;;4974534;28;20270;-96
2022/08/15 04:21:49;;;;;;;1.40;1.07;;;20.70;99.90;;;;;;4959048;29;20211;-96
2022/08/15 04:24:21;;;;;;;1.47;1.07;;;20.70;99.90;;;;;;4959287;29;20212;-96
2022/08/15 04:26:58;;;;;;;2.53;1.00;;;20.70;99.90;;;;;;4961661;28;20226;-96
2022/08/15 04:29:29;;;;;;;1.00;0.90;;;20.70;99.90;;;;;;4962268;28;20222;-96
2022/08/15 04:32:02;;;;;;;1.37;1.00;;;20.70;99.90;;;;;;4961892;28;20215;-96
2022/08/15 04:34:38;;;;;;;1.57;1.13;;;20.60;99.90;;;;;;4963918;29;20255;-96
2022/08/15 04:37:22;;;;;;;1.27;1.17;;;20.50;99.90;;;;;;4963434;28;20211;-96
2022/08/15 04:39:54;;;;;;;2.67;1.20;;;20.50;99.90;;;;;;4962535;28;20258;-96
2022/08/15 04:42:26;;;;;;;1.77;1.20;;;20.40;99.90;;;;;;4963629;28;20299;-96
2022/08/15 04:44:58;;;;;;;1.67;1.03;;;20.20;99.90;;;;;;4985631;28;20740;-95
2022/08/15 04:47:30;;;;;;;1.90;1.37;;;20.20;99.90;;;;;;4991690;28;20219;-96
2022/08/15 04:50:08;;;;;;;2.20;1.60;;;20.10;99.90;;;;;;4996587;28;20210;-96
2022/08/15 04:52:46;;;;;;;1.90;1.70;;;20.00;99.90;;;;;;4995475;28;20288;-95
2022/08/15 04:55:19;;;;;;;4.23;1.50;;;20.00;99.90;;;;;;4970868;28;20203;-96
2022/08/15 04:58:11;;;;;;;2.23;1.33;;;20.00;99.90;;;;;;4963352;28;20246;-96
2022/08/15 05:01:06;;;;;;;1.70;1.40;;;20.00;99.90;;;;;;4967996;28;20238;-94
2022/08/15 05:03:39;;;;;;;2.33;1.17;;;19.90;99.90;;;;;;4969347;28;20202;-95
2022/08/15 05:06:13;;;;;;;3.60;1.10;;;19.80;99.90;;;;;;4969291;28;20219;-95
2022/08/15 05:09:01;;;;;;;1.57;1.20;;;19.80;99.90;;;;;;4989295;28;20215;-94
2022/08/15 05:11:33;;;;;;;2.40;1.10;;;19.80;99.90;;;;;;4982098;28;20314;-95
2022/08/15 05:14:33;;;;;;;1.93;1.20;;;19.80;99.90;;;;;;4975430;28;20211;-94
2022/08/15 05:17:21;;;;;;;2.43;1.30;;;19.80;99.90;;;;;;4972850;28;20211;-94
2022/08/15 05:20:15;;;;;;;3.23;1.33;;;19.70;99.90;;;;;;4970118;28;20259;-94
2022/08/15 05:23:00;;;;;;;1.33;1.20;;;19.60;99.90;;;;;;4972323;28;20239;-94
2022/08/15 05:25:40;;;;;;;2.37;1.30;;;19.60;99.90;;;;;;4966582;28;20217;-94
2022/08/15 05:28:16;;;;;;;1.63;1.20;;;19.50;99.90;;;;;;4970310;29;20666;-95
2022/08/15 05:39:00;;;;;;;3.67;1.33;;;19.30;99.90;;;;;;5028247;28;20216;-94
2022/08/15 05:41:44;;;;;;;3.03;1.10;;;19.20;99.90;;;;;;5026481;28;20205;-95
2022/08/15 05:44:29;;;;;;;1.90;1.30;;;19.20;99.90;;;;;;5029857;28;20219;-95
2022/08/15 05:50:30;;;;;;;1.30;1.20;;;19.00;99.90;;;;;;5034955;28;20216;-95
2022/08/15 05:53:29;;;;;;;1.70;1.40;;;18.90;99.90;;;;;;5032325;28;20213;-95
2022/08/15 05:56:18;;;;;;;2.37;1.20;;;18.80;99.90;;;;;;5031980;28;20193;-95
2022/08/15 05:58:56;;;;;;;1.50;1.40;;;18.70;99.90;;;;;;5030374;28;20209;-95
2022/08/15 06:01:35;;;;;;;4.00;1.33;;;18.70;99.90;;;;;;5029927;28;20623;-95
2022/08/15 06:04:50;;;;;;;1.87;1.37;;;18.60;99.90;;;;;;5035478;28;20210;-95
2022/08/15 06:48:17;;;;;;;1.78;1.44;;;18.20;99.90;;;;;;6264818;22;3472142;-91
2022/08/15 06:51:13;;;;;;;2.43;1.63;;;17.90;99.90;;;;;;6278314;22;20163;-95
2022/08/15 07:02:42;;;;;;;2.07;1.63;;;17.80;99.90;;;;;;6217774;23;20204;-94
2022/08/15 07:05:40;;;;;;;2.00;1.50;;;17.80;99.90;;;;;;6208731;23;20207;-96
2022/08/15 07:08:22;;;;;;;4.43;1.70;;;17.70;99.90;;;;;;6197885;23;20263;-96
2022/08/15 07:11:07;;;;;;;3.47;1.80;;;17.60;99.90;;;;;;6193794;23;20171;-92
2022/08/15 07:13:55;;;;;;;3.97;2.00;;;17.60;99.90;;;;;;6217172;23;20172;-96
2022/08/15 07:16:59;;;;;;;3.20;1.60;;;17.60;99.90;;;;;;6208721;22;20200;-94
2022/08/15 07:22:35;;;;;;;2.97;1.70;;;17.60;99.90;;;;;;6250489;22;20182;-94
2022/08/15 07:25:22;;;;;;;3.67;2.07;;;17.50;99.90;;;;;;6247730;22;20210;-94
2022/08/15 07:28:16;;;;;;;3.37;1.90;;;17.50;99.90;;;;;;6242627;23;20188;-94
2022/08/15 07:36:59;;;;;;;1.90;1.73;;;17.20;99.90;;;;;;6239365;23;20183;-95
2022/08/15 07:39:39;;;;;;;2.57;1.80;;;17.20;99.90;;;;;;6243440;23;20191;-94
2022/08/15 07:42:23;;;;;;;2.43;2.00;;;17.10;99.90;;;;;;6227799;23;20176;-95
2022/08/15 07:45:19;;;;;;;5.27;2.00;;;17.00;99.90;;;;;;6241048;23;20187;-95
2022/08/15 07:47:59;;;;;;;3.40;1.83;;;16.90;99.90;;;;;;6227791;23;20183;-96
2022/08/15 07:50:39;;;;;;;2.00;1.80;;;16.90;99.90;;;;;;6223036;23;20176;-95
2022/08/15 07:53:18;;;;;;;2.90;1.70;;;16.90;99.90;;;;;;6221159;23;20172;-95
2022/08/15 07:56:15;;;;;;;1.90;1.60;;;16.80;99.90;;;;;;6222070;23;20202;-95
2022/08/15 07:59:14;;;;;;;2.20;1.60;;;16.80;99.90;;;;;;6205426;23;20256;-95
2022/08/15 08:02:02;;;;;;;2.70;1.93;;;16.70;99.90;;;;;;6228395;23;20603;-94
2022/08/15 08:04:37;;;;;;;2.47;1.93;;;16.70;99.90;;;;;;6227054;23;20180;-95
2022/08/15 08:07:22;;;;;;;4.50;1.60;;;16.70;99.90;;;;;;6224584;23;20176;-95
2022/08/15 08:10:11;;;;;;;3.17;1.90;;;16.60;99.90;;;;;;6224451;23;20179;-95
2022/08/15 08:13:13;;;;;;;2.33;1.70;;;16.60;99.90;;;;;;6223125;23;20185;-95
2022/08/15 08:16:01;;;;;;;2.27;1.60;;;16.60;99.90;;;;;;6223835;23;20173;-95
2022/08/15 08:18:48;;;;;;;2.43;2.03;;;16.50;99.90;;;;;;6222047;23;20170;-95
2022/08/15 08:21:26;;;;;;;2.47;1.83;;;16.50;99.90;;;;;;6220731;23;20185;-94
2022/08/15 08:24:04;;;;;;;3.93;1.90;;;16.40;99.90;;;;;;6221605;23;20613;-96
2022/08/15 08:26:47;;;;;;;3.23;1.90;;;16.40;99.90;;;;;;6196710;23;20276;-94
2022/08/15 08:29:30;;;;;;;3.27;2.10;;;16.30;99.90;;;;;;6221588;23;20196;-95
2022/08/15 08:32:17;;;;;;;3.57;1.87;;;16.20;99.90;;;;;;6221413;23;20172;-95
2022/08/15 08:35:11;;;;;;;2.17;1.80;;;16.20;99.90;;;;;;6222820;23;20255;-95
2022/08/15 08:37:52;;;;;;;2.67;1.83;;;16.20;99.90;;;;;;6221052;23;20212;-95
2022/08/15 08:43:39;;;;;;;4.27;1.97;;;16.10;99.90;;;;;;6222791;23;20607;-95
2022/08/15 08:46:23;;;;;;;2.13;1.90;;;16.10;99.90;;;;;;6230594;23;20172;-95
2022/08/15 08:49:11;;;;;;;2.57;1.80;;;16.10;99.90;;;;;;6239952;22;20211;-95
2022/08/15 08:51:56;;;;;;;2.60;1.80;;;16.10;99.90;;;;;;6238610;22;20160;-94
2022/08/15 08:54:44;;;;;;;2.57;2.03;;;16.00;99.90;;;;;;6240571;22;20175;-95
2022/08/15 08:57:36;;;;;;;4.20;1.80;;;16.00;99.90;;;;;;6240885;22;20185;-95
2022/08/15 09:00:13;;;;;;;2.33;1.67;;;16.00;99.90;;;;;;6241197;22;20374;-95
2022/08/15 09:02:50;;;;;;;2.30;1.80;;;16.10;99.90;;;;;;6240736;22;20192;-95
2022/08/15 09:05:34;;;;;;;2.60;1.80;;;16.10;99.90;;;;;;6240649;23;20182;-95
2022/08/15 09:08:24;;;;;;;3.17;1.70;;;16.10;99.90;;;;;;6238010;23;20196;-95
2022/08/15 09:11:05;;;;;;;3.97;2.17;;;16.00;99.90;;;;;;6202068;23;20184;-95
2022/08/15 09:13:40;;;;;;;2.73;2.10;;;16.00;99.90;;;;;;6225873;23;20177;-95
2022/08/15 09:16:18;;;;;;;2.07;1.80;;;15.90;99.90;;;;;;6222604;23;20176;-95
2022/08/15 09:19:04;;;;;;;2.03;1.83;;;15.90;99.90;;;;;;6224166;23;20180;-96
2022/08/15 09:21:42;;;;;;;3.43;2.00;;;15.80;99.90;;;;;;6222305;23;20504;-95
2022/08/15 09:24:17;;;;;;;3.20;2.00;;;15.90;99.90;;;;;;6223525;23;20186;-94
2022/08/15 09:27:18;;;;;;;3.07;1.93;;;15.80;99.90;;;;;;6223019;23;20506;-95
2022/08/15 09:29:55;;;;;;;4.90;2.03;;;15.80;99.90;;;;;;6223400;23;20184;-95
2022/08/15 09:32:42;;;;;;;2.73;2.30;;;15.80;99.90;;;;;;6222551;23;20491;-95
2022/08/15 09:35:49;;;;;;;2.87;2.10;;;15.70;99.90;;;;;;6222912;23;20227;-94
2022/08/15 09:38:53;;;;;;;4.43;2.00;;;15.70;99.90;;;;;;6223360;23;20208;-95
2022/08/15 09:44:36;;;;;;;2.57;2.00;;;15.70;99.90;;;;;;6163502;23;20205;-93
2022/08/15 09:47:27;;;;;;;3.53;2.20;;;15.70;99.90;;;;;;6163059;23;20196;-93
2022/08/15 09:50:30;;;;;;;4.00;2.20;;;15.70;99.90;;;;;;6175794;23;20208;-94
2022/08/15 09:53:19;;;;;;;2.80;2.10;;;15.70;99.90;;;;;;6174801;23;20181;-95
2022/08/15 09:55:55;;;;;;;3.60;2.40;;;15.70;99.90;;;;;;6165801;23;20173;-95
2022/08/15 09:58:28;;;;;;;3.90;2.60;;;15.60;99.90;;;;;;6165302;23;20212;-96
2022/08/15 10:01:09;;;;;;;3.10;2.00;;;15.50;99.90;;;;;;6167730;23;20177;-96
2022/08/15 10:04:09;;;;;;;3.83;2.53;;;15.50;99.90;;;;;;6168075;23;20193;-95
2022/08/15 10:07:31;;;;;;;2.30;2.10;;;15.40;99.90;;;;;;6126189;23;20177;-94
2022/08/15 10:10:19;;;;;;;4.07;2.50;;;15.50;99.90;;;;;;6163076;23;20184;-94
2022/08/15 10:13:30;;;;;;;2.33;2.13;;;15.50;99.90;;;;;;6160941;23;20240;-94
2022/08/15 10:16:04;;;;;;;3.97;2.30;;;15.40;99.90;;;;;;6160523;23;20174;-93
2022/08/15 10:19:10;;;;;;;3.57;2.17;;;15.40;99.90;;;;;;6161531;23;20220;-94
2022/08/15 10:21:44;;;;;;;4.40;2.27;;;15.50;99.90;;;;;;6160295;23;20265;-94
2022/08/15 10:24:29;;;;;;;4.07;2.23;;;15.60;99.90;;;;;;6136036;23;20174;-93
2022/08/15 10:27:15;;;;;;;4.77;2.30;;;15.70;99.90;;;;;;6161024;23;20229;-93
2022/08/15 10:29:49;;;;;;;3.30;1.70;;;15.70;99.90;;;;;;6161677;23;20188;-93
2022/08/15 10:32:38;;;;;;;2.73;2.30;;;15.60;99.90;;;;;;6160248;23;20492;-93
2022/08/15 10:35:37;;;;;;;3.07;2.30;;;15.60;99.90;;;;;;6160203;23;20178;-93
2022/08/15 10:38:11;;;;;;;2.33;2.10;;;15.70;99.90;;;;;;6160126;23;20535;-93
2022/08/15 10:41:18;;;;;;;3.00;2.00;;;15.70;99.90;;;;;;6161119;23;20174;-96
2022/08/15 10:44:00;;;;;;;3.30;2.07;;;15.80;99.90;;;;;;6160958;23;20196;-93
2022/08/15 10:46:55;;;;;;;2.90;2.23;;;15.80;99.90;;;;;;6160905;23;20244;-93
2022/08/15 10:49:40;;;;;;;2.37;2.00;;;15.80;99.90;;;;;;6162011;23;20691;-96
2022/08/15 10:52:44;;;;;;;3.53;1.90;;;15.70;99.90;;;;;;6159638;23;20178;-95
2022/08/15 10:55:32;;;;;;;3.47;2.03;;;15.70;99.90;;;;;;6179521;23;20268;-96
2022/08/15 10:58:32;;;;;;;3.57;2.23;;;15.70;99.90;;;;;;6160255;23;20639;-93
2022/08/15 11:01:07;;;;;;;2.27;1.90;;;15.60;99.90;;;;;;6160228;23;20178;-93
2022/08/15 11:03:52;;;;;;;3.93;2.23;;;15.60;99.90;;;;;;6159707;23;20253;-95
2022/08/15 11:06:46;;;;;;;3.20;2.00;;;15.50;99.90;;;;;;6159844;23;20620;-93
2022/08/15 11:09:26;;;;;;;2.20;2.00;;;15.50;99.90;;;;;;6160124;23;20181;-93
2022/08/15 11:12:04;;;;;;;3.67;2.20;;;15.60;99.90;;;;;;6159373;23;20174;-93
2022/08/15 11:14:44;;;;;;;3.23;2.40;;;15.50;99.90;;;;;;6159808;23;20177;-96
2022/08/15 11:17:19;;;;;;;5.37;2.20;;;15.50;99.90;;;;;;6160181;23;20190;-94
2022/08/15 11:20:00;;;;;;;2.53;2.20;;;15.50;99.90;;;;;;6160121;23;20171;-93
2022/08/15 11:22:52;;;;;;;3.43;1.90;;;15.50;99.90;;;;;;6159508;23;20177;-93
2022/08/15 11:25:28;;;;;;;3.73;2.10;;;15.40;99.90;;;;;;6161640;23;20276;-95
2022/08/15 11:28:06;;;;;;;3.77;1.80;;;15.40;99.90;;;;;;6162292;23;20201;-94
2022/08/15 11:31:03;;;;;;;2.63;1.90;;;15.30;99.90;;;;;;6162447;23;20273;-93
2022/08/15 11:33:43;;;;;;;3.60;2.33;;;15.20;99.90;;;;;;6165124;23;20577;-93
2022/08/15 11:36:21;;;;;;;3.23;1.93;;;15.20;99.90;;;;;;6168890;23;20185;-93
2022/08/15 11:38:56;;;;;;;3.87;2.30;;;15.10;99.90;;;;;;6171406;23;20232;-93
2022/08/15 11:41:49;;;;;;;2.60;2.17;;;15.10;99.90;;;;;;6161414;23;20258;-95
2022/08/15 11:44:37;;;;;;;4.93;2.70;;;15.10;99.90;;;;;;6163637;23;20178;-93
2022/08/15 11:47:14;;;;;;;3.00;2.20;;;15.10;99.90;;;;;;6165336;23;20166;-94
2022/08/15 11:49:49;;;;;;;2.10;1.90;;;15.10;99.90;;;;;;6164626;23;20235;-95
2022/08/15 11:52:29;;;;;;;3.80;2.40;;;15.10;99.90;;;;;;6161996;23;20177;-93
2022/08/15 11:55:23;;;;;;;3.33;2.50;;;15.00;99.90;;;;;;6161885;23;20166;-94
2022/08/15 11:58:00;;;;;;;4.17;2.30;;;14.90;99.90;;;;;;6164436;23;20194;-94
2022/08/15 12:00:40;;;;;;;2.53;2.20;;;14.80;99.90;;;;;;6161750;23;20616;-93
2022/08/15 12:03:20;;;;;;;5.00;2.80;;;14.90;99.90;;;;;;6160503;23;20184;-93
2022/08/15 12:06:27;;;;;;;3.80;1.90;;;14.90;99.90;;;;;;6161217;23;20287;-93
2022/08/15 12:09:28;;;;;;;3.17;2.03;;;14.80;99.90;;;;;;6161920;23;20268;-93
2022/08/15 12:12:30;;;;;;;3.23;2.20;;;14.80;99.90;;;;;;6161169;23;20181;-94
2022/08/15 12:15:13;;;;;;;4.03;2.37;;;14.80;99.90;;;;;;6160829;23;20177;-93
2022/08/15 12:18:12;;;;;;;1.83;1.73;;;14.70;99.90;;;;;;6161328;23;20173;-94
2022/08/15 12:21:11;;;;;;;3.17;1.87;;;14.70;99.90;;;;;;6161895;23;20182;-94
2022/08/15 12:23:51;;;;;;;2.67;2.37;;;14.70;99.90;;;;;;6166579;23;20184;-92
2022/08/15 12:26:28;;;;;;;3.13;2.10;;;14.70;99.90;;;;;;6166741;23;20174;-93
2022/08/15 12:29:20;;;;;;;5.17;2.17;;;14.60;99.90;;;;;;6162647;23;20253;-94
2022/08/15 12:31:58;;;;;;;2.80;2.10;;;14.60;99.90;;;;;;6163164;23;20181;-96
2022/08/15 12:34:51;;;;;;;4.07;2.20;;;14.50;99.90;;;;;;6166202;23;20181;-93
2022/08/15 12:37:29;;;;;;;2.10;1.90;;;14.50;99.90;;;;;;6180639;23;20222;-93
2022/08/15 12:40:14;;;;;;;2.83;2.10;;;14.50;99.90;;;;;;6182471;23;20193;-94
2022/08/15 12:43:10;;;;;;;2.20;2.00;;;14.50;99.90;;;;;;6181466;23;20225;-95
2022/08/15 12:45:46;;;;;;;7.83;2.13;;;14.50;99.90;;;;;;6182262;23;20169;-95
2022/08/15 12:48:24;;;;;;;2.50;2.20;;;14.50;99.90;;;;;;6182449;23;20178;-94
2022/08/15 12:51:07;;;;;;;3.77;2.40;;;14.50;99.90;;;;;;6166729;23;20197;-94
2022/08/15 12:53:39;;;;;;;4.60;2.50;;;14.40;99.90;;;;;;6165891;23;20188;-94
2022/08/15 12:56:13;;;;;;;4.57;2.07;;;14.40;99.90;;;;;;6163859;23;20185;-94
2022/08/15 12:59:08;;;;;;;3.50;2.47;;;14.40;99.90;;;;;;6160532;23;20239;-94
2022/08/15 13:01:42;;;;;;;3.43;2.50;;;14.40;99.90;;;;;;6159052;23;20184;-94
2022/08/15 13:04:27;;;;;;;3.90;2.20;;;14.40;99.90;;;;;;6160466;23;20169;-94
2022/08/15 13:07:20;;;;;;;5.53;2.77;;;14.50;99.90;;;;;;6160408;23;20209;-93
2022/08/15 13:10:02;;;;;;;3.43;2.33;;;14.40;99.90;;;;;;6160016;23;20181;-94
2022/08/15 13:12:54;;;;;;;3.63;2.40;;;14.40;99.90;;;;;;6160482;23;20242;-95
2022/08/15 13:15:30;;;;;;;2.37;2.00;;;14.40;99.90;;;;;;6159935;23;20182;-94
2022/08/15 13:18:03;;;;;;;3.47;2.27;;;14.40;99.90;;;;;;6160072;23;20515;-94
2022/08/15 13:23:42;;;;;;;2.40;2.10;;;14.30;99.90;;;;;;6160214;23;20209;-93
2022/08/15 13:26:34;;;;;;;3.20;2.27;;;14.30;99.90;;;;;;6160143;23;20284;-95
2022/08/15 13:29:13;;;;;;;3.67;2.40;;;14.30;99.90;;;;;;6160261;23;20177;-94
2022/08/15 13:31:47;;;;;;;2.90;2.47;;;14.30;99.90;;;;;;6158702;23;20173;-94
2022/08/15 13:34:24;;;;;;;4.53;2.50;;;14.30;99.90;;;;;;6159824;23;20180;-94
2022/08/15 13:36:55;;;;;;;3.77;2.33;;;14.20;99.90;;;;;;6160276;23;20174;-93
2022/08/15 13:39:31;;;;;;;3.10;2.40;;;14.30;99.90;;;;;;6160567;23;20575;-94
2022/08/15 13:42:23;;;;;;;4.33;2.40;;;14.30;99.90;;;;;;6159421;23;20214;-94
2022/08/15 13:45:08;;;;;;;3.40;2.43;;;14.30;99.90;;;;;;6159478;23;20170;-94
2022/08/15 13:47:40;;;;;;;4.03;2.40;;;14.30;99.90;;;;;;6159856;23;20178;-95
2022/08/15 13:50:22;;;;;;;4.97;2.27;;;14.30;99.90;;;;;;6159481;23;20177;-94
2022/08/15 13:52:54;;;;;;;4.60;2.53;;;14.20;99.90;;;;;;6159017;23;20236;-94
2022/08/15 13:55:27;;;;;;;4.40;2.30;;;14.20;99.90;;;;;;6159608;23;20634;-94
2022/08/15 13:57:59;;;;;;;4.13;2.00;;;14.20;99.90;;;;;;6159942;23;20225;-93
2022/08/15 14:00:48;;;;;;;2.73;2.30;;;14.30;99.90;;;;;;6159152;23;20580;-93
2022/08/15 14:03:36;;;;;;;2.83;2.10;;;14.40;99.90;;;;;;6158763;23;20236;-94
2022/08/15 14:06:08;;;;;;;3.17;2.40;;;14.40;99.90;;;;;;6159668;23;20177;-93
2022/08/15 14:08:45;;;;;;;2.73;2.53;;;14.40;99.90;;;;;;6159890;23;20178;-94
2022/08/15 14:11:37;;;;;;;3.13;2.40;;;14.30;99.90;;;;;;6159159;23;20525;-94
2022/08/15 14:14:28;;;;;;;4.13;2.57;;;14.40;99.90;;;;;;6159643;23;20174;-94
2022/08/15 14:17:05;;;;;;;4.27;2.60;;;14.50;99.90;;;;;;6181501;23;20200;-93
2022/08/15 14:19:39;;;;;;;4.87;2.83;;;14.50;99.90;;;;;;6159896;23;20232;-93
2022/08/15 14:22:30;;;;;;;2.27;2.07;;;14.60;99.90;;;;;;6159098;23;20189;-95
2022/08/15 14:25:02;;;;;;;3.73;2.53;;;14.60;99.90;;;;;;6160204;23;20173;-94
2022/08/15 14:27:55;;;;;;;9.50;2.73;;;14.70;99.90;;;;;;6159441;23;20740;-94
2022/08/15 14:30:28;;;;;;;8.67;3.10;;;14.70;99.90;;;;;;6159984;23;20220;-94
2022/08/15 14:33:19;;;;;;;6.57;3.17;;;14.80;99.90;;;;;;6159733;23;20244;-94
2022/08/15 14:35:56;;;;;;;6.47;3.43;;;14.90;99.90;;;;;;6160055;23;20233;-94
2022/08/15 14:38:48;;;;;;;7.03;3.50;;;15.00;99.90;;;;;;6160566;23;20232;-93
2022/08/15 14:41:22;;;;;;;6.37;3.77;;;15.10;99.90;;;;;;6159700;23;20254;-93
2022/08/15 14:43:57;;;;;;;5.47;3.47;;;15.20;99.90;;;;;;6159530;23;20196;-94
2022/08/15 14:46:30;;;;;;;6.77;3.37;;;15.20;99.90;;;;;;6159980;23;20177;-94
2022/08/15 14:49:06;;;;;;;6.93;3.53;;;15.30;99.90;;;;;;6160411;23;20180;-95
2022/08/15 14:51:44;;;;;;;5.33;3.63;;;15.40;99.90;;;;;;6162203;23;20177;-95
2022/08/15 14:54:37;;;;;;;7.27;3.50;;;15.50;99.90;;;;;;6162556;23;20206;-94
2022/08/15 14:57:18;;;;;;;4.53;3.20;;;15.50;99.90;;;;;;6160881;23;20240;-94
2022/08/15 14:59:56;;;;;;;6.70;3.00;;;15.60;99.90;;;;;;6161825;23;20235;-95
2022/08/15 15:02:38;;;;;;;4.73;2.80;;;15.80;99.90;;;;;;6163821;23;20555;-94
2022/08/15 15:05:14;;;;;;;4.67;2.83;;;15.90;99.90;;;;;;6164005;23;20332;-95
2022/08/15 15:07:57;;;;;;;4.63;2.60;;;16.10;99.90;;;;;;6164527;23;20174;-95
2022/08/15 15:10:31;;;;;;;3.83;2.60;;;16.20;99.90;;;;;;6164692;23;20181;-94
2022/08/15 15:13:09;;;;;;;4.20;2.50;;;16.30;99.90;;;;;;6177617;23;20221;-94
2022/08/15 15:15:45;;;;;;;5.77;2.73;;;16.50;99.90;;;;;;6183358;23;20180;-95
2022/08/15 15:18:38;;;;;;;6.70;2.80;;;16.60;99.90;;;;;;6180897;23;20471;-95
2022/08/15 15:21:32;;;;;;;4.20;2.20;;;16.90;99.90;;;;;;6175070;23;20198;-95
2022/08/15 15:24:08;;;;;;;5.50;2.50;;;17.00;99.90;;;;;;6175633;23;20177;-95
2022/08/15 15:26:43;;;;;;;8.70;2.80;;;17.20;99.90;;;;;;6173388;23;20655;-94
2022/08/15 15:29:29;;;;;;;6.57;2.50;;;17.30;99.90;;;;;;6178491;23;20189;-95
2022/08/15 15:32:19;;;;;;;5.53;2.37;;;17.50;99.90;;;;;;6174171;23;20192;-94
2022/08/15 15:35:06;;;;;;;6.40;2.70;;;17.60;99.90;;;;;;6169021;23;20174;-94
2022/08/15 15:37:40;;;;;;;3.77;2.10;;;17.70;99.90;;;;;;6176881;23;20227;-94
2022/08/15 15:40:21;;;;;;;3.83;1.90;;;17.90;99.90;;;;;;6177553;23;20201;-94
2022/08/15 15:42:53;;;;;;;3.10;2.13;;;18.00;99.90;;;;;;6172074;23;20208;-96
2022/08/15 15:45:26;;;;;;;2.93;1.90;;;18.10;99.90;;;;;;6169676;23;20178;-95
2022/08/15 15:48:05;;;;;;;3.10;1.73;;;18.20;99.90;;;;;;6169087;23;20178;-95
2022/08/15 15:50:38;;;;;;;2.93;1.90;;;18.30;99.90;;;;;;6174386;23;20235;-96
2022/08/15 15:53:22;;;;;;;3.00;2.03;;;18.30;99.90;;;;;;6173019;23;20177;-96
2022/08/15 15:56:23;;;;;;;5.27;1.87;;;18.40;99.90;;;;;;6176623;23;20162;-94
2022/08/15 15:59:07;;;;;;;2.47;1.60;;;18.40;99.90;;;;;;6198955;23;20188;-95
2022/08/15 16:01:39;;;;;;;5.03;1.97;;;18.50;99.90;;;;;;6165361;23;20209;-95
2022/08/15 16:04:31;;;;;;;2.80;1.83;;;18.50;99.90;;;;;;6164134;23;20551;-96
2022/08/15 16:07:02;;;;;;;4.57;2.17;;;18.60;99.90;;;;;;6165571;23;20189;-95